createdAt,value
2017-09-13T00:01:25.231Z,13.10
2017-09-13T00:03:51.816Z,13.10
2017-09-13T00:06:18.228Z,13.00
2017-09-13T00:08:44.640Z,13.00
2017-09-13T00:11:11.079Z,13.00
2017-09-13T00:13:37.497Z,13.00
2017-09-13T00:16:04.676Z,13.10
2017-09-13T00:18:31.304Z,13.00
2017-09-13T00:20:57.783Z,13.00
2017-09-13T00:23:25.177Z,12.90
2017-09-13T00:25:52.503Z,12.90
2017-09-13T00:28:18.911Z,12.90
2017-09-13T00:30:45.735Z,13.00
2017-09-13T00:33:12.955Z,13.10
2017-09-13T00:35:39.722Z,13.00
2017-09-13T00:38:06.192Z,13.00
2017-09-13T00:40:32.612Z,13.00
2017-09-13T00:42:59.026Z,13.00
2017-09-13T00:45:25.438Z,13.00
2017-09-13T00:47:52.015Z,13.00
2017-09-13T00:50:18.478Z,13.10
2017-09-13T00:52:45.729Z,13.00
2017-09-13T00:55:12.974Z,12.90
2017-09-13T00:57:40.171Z,12.80
2017-09-13T01:00:06.642Z,12.80
2017-09-13T01:02:33.367Z,12.80
2017-09-13T01:04:59.812Z,12.80
2017-09-13T01:07:26.275Z,12.70
2017-09-13T01:09:52.725Z,12.70
2017-09-13T01:12:19.944Z,12.80
2017-09-13T01:14:46.385Z,12.70
2017-09-13T01:17:12.798Z,12.50
2017-09-13T01:19:39.470Z,12.60
2017-09-13T01:22:05.928Z,12.70
2017-09-13T01:24:32.834Z,12.70
2017-09-13T01:26:59.266Z,12.80
2017-09-13T01:29:25.678Z,12.60
2017-09-13T01:31:52.096Z,12.70
2017-09-13T01:34:18.562Z,12.80
2017-09-13T01:36:44.990Z,12.70
2017-09-13T01:39:11.401Z,12.70
2017-09-13T01:41:38.199Z,12.70
2017-09-13T01:44:04.603Z,12.70
2017-09-13T01:46:32.496Z,12.60
2017-09-13T01:48:59.751Z,12.60
2017-09-13T01:51:26.182Z,12.70
2017-09-13T01:53:52.605Z,12.70
2017-09-13T01:56:19.103Z,12.60
2017-09-13T01:58:45.503Z,12.60
2017-09-13T02:01:11.923Z,12.60
2017-09-13T02:03:38.348Z,12.50
2017-09-13T02:06:04.768Z,12.60
2017-09-13T02:08:32.023Z,12.60
2017-09-13T02:10:58.468Z,12.60
2017-09-13T02:13:24.916Z,12.50
2017-09-13T02:15:51.362Z,12.50
2017-09-13T02:18:17.767Z,12.40
2017-09-13T02:20:44.463Z,12.40
2017-09-13T02:23:11.680Z,12.40
2017-09-13T02:25:38.088Z,12.30
2017-09-13T02:28:04.519Z,12.30
2017-09-13T02:30:31.056Z,12.40
2017-09-13T02:32:57.490Z,12.40
2017-09-13T02:35:23.924Z,12.40
2017-09-13T02:37:50.316Z,12.30
2017-09-13T02:40:16.781Z,12.30
2017-09-13T02:42:43.188Z,12.40
2017-09-13T02:45:10.334Z,12.40
2017-09-13T02:47:36.747Z,12.40
2017-09-13T02:50:03.166Z,12.50
2017-09-13T02:52:29.620Z,12.50
2017-09-13T02:54:56.803Z,12.60
2017-09-13T02:57:24.069Z,12.50
2017-09-13T02:59:50.565Z,12.50
2017-09-13T03:02:18.518Z,12.30
2017-09-13T03:04:45.687Z,12.20
2017-09-13T03:07:13.615Z,12.10
2017-09-13T03:09:40.072Z,12.10
2017-09-13T03:12:07.280Z,12.00
2017-09-13T03:14:33.711Z,12.00
2017-09-13T03:17:00.139Z,12.00
2017-09-13T03:19:27.285Z,11.90
2017-09-13T03:21:54.443Z,11.90
2017-09-13T03:24:20.919Z,11.90
2017-09-13T03:26:47.335Z,11.90
2017-09-13T03:29:13.760Z,11.80
2017-09-13T03:31:40.180Z,11.80
2017-09-13T03:34:06.634Z,11.80
2017-09-13T03:36:33.100Z,11.90
2017-09-13T03:39:00.767Z,12.10
2017-09-13T03:41:27.248Z,12.00
2017-09-13T03:43:53.670Z,12.10
2017-09-13T03:46:20.102Z,12.20
2017-09-13T03:48:46.632Z,12.10
2017-09-13T03:51:13.078Z,12.10
2017-09-13T03:53:39.606Z,11.90
2017-09-13T03:56:06.054Z,11.90
2017-09-13T03:58:32.534Z,12.00
2017-09-13T04:00:59.694Z,11.90
2017-09-13T04:03:26.880Z,12.00
2017-09-13T04:05:54.125Z,12.00
2017-09-13T04:08:21.394Z,12.20
2017-09-13T04:10:47.798Z,12.10
2017-09-13T04:13:14.943Z,11.80
2017-09-13T04:15:42.091Z,11.80
2017-09-13T04:18:09.270Z,11.80
2017-09-13T04:20:36.985Z,11.80
2017-09-13T04:23:03.487Z,11.60
2017-09-13T04:25:30.010Z,11.50
2017-09-13T04:27:56.483Z,11.50
2017-09-13T04:30:23.634Z,11.60
2017-09-13T04:32:50.793Z,11.60
2017-09-13T04:35:17.197Z,11.60
2017-09-13T04:37:43.617Z,11.60
2017-09-13T04:40:10.079Z,11.60
2017-09-13T04:42:37.585Z,11.50
2017-09-13T04:45:04.031Z,11.40
2017-09-13T04:47:30.523Z,11.40
2017-09-13T04:49:56.983Z,11.40
2017-09-13T04:52:23.387Z,11.50
2017-09-13T04:54:50.085Z,11.50
2017-09-13T04:57:16.586Z,11.60
2017-09-13T04:59:43.056Z,11.50
2017-09-13T05:02:09.473Z,11.40
2017-09-13T05:04:35.900Z,11.20
2017-09-13T05:07:02.303Z,11.20
2017-09-13T05:09:29.563Z,11.20
2017-09-13T05:11:56.198Z,11.20
2017-09-13T05:14:23.374Z,11.30
2017-09-13T05:16:49.820Z,11.30
2017-09-13T05:19:16.258Z,11.30
2017-09-13T05:21:42.831Z,11.30
2017-09-13T05:24:09.300Z,11.40
2017-09-13T05:26:35.884Z,11.40
2017-09-13T05:29:03.062Z,11.70
2017-09-13T05:31:30.300Z,11.90
2017-09-13T05:33:57.481Z,12.10
2017-09-13T05:36:24.663Z,12.20
2017-09-13T05:38:51.090Z,12.10
2017-09-13T05:41:17.497Z,12.30
2017-09-13T05:43:44.658Z,12.50
2017-09-13T05:46:11.092Z,12.50
2017-09-13T05:48:37.640Z,12.60
2017-09-13T05:51:04.073Z,12.70
2017-09-13T05:53:30.579Z,12.80
2017-09-13T05:55:57.051Z,12.90
2017-09-13T05:58:23.475Z,13.10
2017-09-13T06:00:49.938Z,13.20
2017-09-13T06:03:16.343Z,13.30
2017-09-13T06:05:43.092Z,13.40
2017-09-13T06:08:09.523Z,13.40
2017-09-13T06:10:36.140Z,13.60
2017-09-13T06:13:02.614Z,13.70
2017-09-13T06:15:29.067Z,13.90
2017-09-13T06:17:56.222Z,14.30
2017-09-13T06:20:24.129Z,14.40
2017-09-13T06:22:50.517Z,14.40
2017-09-13T06:25:18.424Z,14.80
2017-09-13T06:27:44.838Z,14.80
2017-09-13T06:30:11.996Z,15.00
2017-09-13T06:32:38.484Z,14.90
2017-09-13T06:35:06.434Z,15.20
2017-09-13T06:37:32.877Z,15.20
2017-09-13T06:40:00.095Z,15.60
2017-09-13T06:42:26.553Z,15.60
2017-09-13T06:44:52.992Z,15.70
2017-09-13T06:47:19.444Z,16.10
2017-09-13T06:49:45.878Z,16.10
2017-09-13T06:52:12.327Z,16.40
2017-09-13T06:54:39.618Z,16.70
2017-09-13T06:57:06.066Z,16.70
2017-09-13T06:59:32.531Z,16.60
2017-09-13T07:01:58.989Z,16.70
2017-09-13T07:04:26.176Z,16.90
2017-09-13T07:06:52.624Z,16.80
2017-09-13T07:09:19.058Z,17.00
2017-09-13T07:11:45.478Z,17.00
2017-09-13T07:14:11.940Z,16.80
2017-09-13T07:16:40.036Z,16.90
2017-09-13T07:19:06.494Z,16.90
2017-09-13T07:21:33.083Z,17.00
2017-09-13T07:24:00.287Z,17.20
2017-09-13T07:26:26.738Z,17.20
2017-09-13T07:28:53.180Z,17.40
2017-09-13T07:31:19.592Z,17.50
2017-09-13T07:33:45.992Z,17.50
2017-09-13T07:36:12.477Z,17.20
2017-09-13T07:38:38.962Z,17.10
2017-09-13T07:41:05.392Z,16.90
2017-09-13T07:43:33.082Z,16.80
2017-09-13T07:45:59.915Z,16.80
2017-09-13T07:48:26.386Z,17.00
2017-09-13T07:50:52.846Z,17.10
2017-09-13T07:53:19.250Z,17.40
2017-09-13T07:55:45.652Z,17.50
2017-09-13T07:58:12.827Z,18.00
2017-09-13T08:00:39.378Z,18.00
2017-09-13T08:03:05.801Z,18.00
2017-09-13T08:05:32.354Z,17.90
2017-09-13T08:08:00.294Z,17.90
2017-09-13T08:10:26.720Z,17.90
2017-09-13T08:12:53.158Z,17.90
2017-09-13T08:15:19.635Z,17.80
2017-09-13T08:17:46.062Z,17.70
2017-09-13T08:20:12.490Z,17.70
2017-09-13T08:22:39.889Z,17.60
2017-09-13T08:25:06.366Z,17.50
2017-09-13T08:27:32.965Z,17.50
2017-09-13T08:29:59.423Z,17.50
2017-09-13T08:32:25.860Z,17.40
2017-09-13T08:34:52.285Z,17.30
2017-09-13T08:37:18.751Z,17.30
2017-09-13T08:39:45.175Z,17.20
2017-09-13T08:42:11.587Z,17.20
2017-09-13T08:44:38.012Z,17.20
2017-09-13T08:47:04.439Z,17.30
2017-09-13T08:49:31.011Z,17.40
2017-09-13T08:51:58.950Z,17.60
2017-09-13T08:54:25.368Z,17.70
2017-09-13T08:56:52.522Z,17.80
2017-09-13T08:59:19.012Z,17.70
2017-09-13T09:01:45.503Z,17.80
2017-09-13T09:04:11.921Z,17.90
2017-09-13T09:06:39.205Z,18.00
2017-09-13T09:09:05.632Z,18.00
2017-09-13T09:11:32.062Z,17.60
2017-09-13T09:13:58.464Z,17.50
2017-09-13T09:16:25.671Z,17.70
2017-09-13T09:18:53.604Z,17.50
2017-09-13T09:21:20.016Z,17.50
2017-09-13T09:23:47.152Z,17.60
2017-09-13T09:26:14.319Z,17.70
2017-09-13T09:28:41.463Z,17.80
2017-09-13T09:31:08.677Z,17.70
2017-09-13T09:33:35.184Z,17.60
2017-09-13T09:36:01.677Z,17.70
2017-09-13T09:38:29.233Z,18.30
2017-09-13T09:40:55.696Z,18.20
2017-09-13T09:43:22.931Z,18.30
2017-09-13T09:45:50.124Z,18.30
2017-09-13T09:48:16.591Z,18.30
2017-09-13T09:50:42.983Z,18.50
2017-09-13T09:53:09.394Z,18.50
2017-09-13T09:55:36.076Z,18.30
2017-09-13T09:58:02.536Z,18.20
2017-09-13T10:00:29.040Z,18.20
2017-09-13T10:02:55.478Z,18.00
2017-09-13T10:05:21.884Z,17.90
2017-09-13T10:07:48.294Z,18.00
2017-09-13T10:10:14.751Z,18.20
2017-09-13T10:12:41.155Z,18.30
2017-09-13T10:15:08.604Z,18.50
2017-09-13T10:17:35.853Z,18.50
2017-09-13T10:20:02.347Z,18.50
2017-09-13T10:22:28.877Z,18.70
2017-09-13T10:24:55.300Z,18.70
2017-09-13T10:27:21.715Z,18.70
2017-09-13T10:29:48.127Z,18.50
2017-09-13T10:32:15.283Z,18.60
2017-09-13T10:34:42.446Z,18.60
2017-09-13T10:37:08.892Z,18.50
2017-09-13T10:39:35.883Z,18.50
2017-09-13T10:42:02.417Z,18.40
2017-09-13T10:44:29.100Z,18.40
2017-09-13T10:46:55.567Z,18.40
2017-09-13T10:49:22.047Z,18.30
2017-09-13T10:51:49.242Z,18.20
2017-09-13T10:54:15.730Z,18.20
2017-09-13T10:56:42.171Z,18.20
2017-09-13T10:59:09.340Z,17.80
2017-09-13T11:01:36.112Z,17.80
2017-09-13T11:04:03.365Z,17.90
2017-09-13T11:06:30.062Z,17.90
2017-09-13T11:08:57.505Z,18.00
2017-09-13T11:11:24.168Z,18.00
2017-09-13T11:13:50.627Z,17.90
2017-09-13T11:16:17.156Z,18.00
2017-09-13T11:18:43.808Z,18.20
2017-09-13T11:21:11.156Z,18.30
2017-09-13T11:23:37.891Z,18.40
2017-09-13T11:26:04.358Z,18.30
2017-09-13T11:28:30.893Z,18.30
2017-09-13T11:30:57.457Z,18.30
2017-09-13T11:33:24.000Z,18.30
2017-09-13T11:35:51.269Z,18.40
2017-09-13T11:38:17.775Z,18.40
2017-09-13T11:40:45.027Z,18.40
2017-09-13T11:43:11.495Z,18.40
2017-09-13T11:45:38.054Z,18.40
2017-09-13T11:48:04.547Z,18.30
2017-09-13T11:50:31.741Z,18.40
2017-09-13T11:52:58.212Z,18.40
2017-09-13T11:55:25.398Z,18.50
2017-09-13T11:57:51.858Z,18.50
2017-09-13T12:00:18.297Z,18.60
2017-09-13T12:02:44.883Z,18.70
2017-09-13T12:05:12.042Z,18.60
2017-09-13T12:07:39.294Z,18.70
2017-09-13T12:10:05.723Z,18.70
2017-09-13T12:12:32.984Z,18.80
2017-09-13T12:14:59.442Z,18.80
2017-09-13T12:17:25.855Z,18.70
2017-09-13T12:19:52.280Z,18.80
2017-09-13T12:22:18.722Z,18.80
2017-09-13T12:24:45.330Z,18.80
2017-09-13T12:27:12.535Z,18.90
2017-09-13T12:29:39.335Z,18.90
2017-09-13T12:32:05.802Z,18.90
2017-09-13T12:34:32.209Z,18.90
2017-09-13T12:36:58.610Z,19.00
2017-09-13T12:39:25.035Z,19.00
2017-09-13T12:41:51.464Z,19.00
2017-09-13T12:44:17.897Z,19.00
2017-09-13T12:46:44.538Z,18.90
2017-09-13T12:49:11.718Z,18.70
2017-09-13T12:51:39.807Z,18.70
2017-09-13T12:54:06.303Z,18.70
2017-09-13T12:56:32.793Z,18.80
2017-09-13T12:58:59.285Z,18.80
2017-09-13T13:01:25.742Z,18.70
2017-09-13T13:03:52.179Z,18.70
2017-09-13T13:06:18.601Z,18.70
2017-09-13T13:08:45.858Z,18.80
2017-09-13T13:11:12.365Z,18.80
2017-09-13T13:13:39.092Z,18.70
2017-09-13T13:16:06.284Z,18.60
2017-09-13T13:18:32.923Z,18.50
2017-09-13T13:20:59.445Z,18.60
2017-09-13T13:23:27.275Z,18.40
2017-09-13T13:25:54.543Z,18.30
2017-09-13T13:28:21.260Z,18.30
2017-09-13T13:30:47.815Z,18.20
2017-09-13T13:33:14.251Z,18.20
2017-09-13T13:35:40.723Z,18.10
2017-09-13T13:38:07.151Z,18.10
2017-09-13T13:40:33.819Z,18.10
2017-09-13T13:43:00.246Z,18.20
2017-09-13T13:45:26.715Z,18.10
2017-09-13T13:47:54.086Z,18.20
2017-09-13T13:50:20.535Z,18.20
2017-09-13T13:52:47.915Z,18.10
2017-09-13T13:55:14.371Z,18.10
2017-09-13T13:57:40.884Z,18.10
2017-09-13T14:00:07.328Z,18.10
2017-09-13T14:02:33.909Z,18.10
2017-09-13T14:05:00.458Z,17.90
2017-09-13T14:07:27.654Z,17.60
2017-09-13T14:09:54.117Z,17.60
2017-09-13T14:12:20.616Z,17.50
2017-09-13T14:14:47.146Z,17.50
2017-09-13T14:17:13.587Z,17.70
2017-09-13T14:19:39.996Z,18.10
2017-09-13T14:22:06.452Z,18.10
2017-09-13T14:24:32.887Z,18.30
2017-09-13T14:26:59.295Z,18.40
2017-09-13T14:29:25.707Z,18.50
2017-09-13T14:31:52.118Z,18.70
2017-09-13T14:34:20.016Z,18.70
2017-09-13T14:36:47.177Z,18.80
2017-09-13T14:39:13.684Z,18.80
2017-09-13T14:41:40.377Z,18.90
2017-09-13T14:44:06.804Z,18.90
2017-09-13T14:46:33.315Z,18.90
2017-09-13T14:48:59.729Z,19.00
2017-09-13T14:51:26.159Z,19.00
2017-09-13T14:53:52.589Z,19.00
2017-09-13T14:56:19.043Z,19.10
2017-09-13T14:58:46.226Z,18.90
2017-09-13T15:01:12.668Z,18.90
2017-09-13T15:03:39.115Z,18.90
2017-09-13T15:06:07.050Z,19.20
2017-09-13T15:08:33.599Z,19.10
2017-09-13T15:11:00.038Z,19.20
2017-09-13T15:13:26.600Z,19.20
2017-09-13T15:15:54.528Z,19.20
2017-09-13T15:18:20.954Z,19.20
2017-09-13T15:20:47.436Z,19.30
2017-09-13T15:23:15.406Z,19.50
2017-09-13T15:25:41.887Z,19.50
2017-09-13T15:28:08.392Z,19.60
2017-09-13T15:30:35.861Z,19.60
2017-09-13T15:33:02.311Z,19.50
2017-09-13T15:35:28.808Z,19.60
2017-09-13T15:37:55.995Z,19.60
2017-09-13T15:40:22.445Z,19.60
2017-09-13T15:42:49.484Z,19.60
2017-09-13T15:45:15.951Z,19.60
2017-09-13T15:47:42.400Z,19.60
2017-09-13T15:50:08.849Z,19.60
2017-09-13T15:52:35.398Z,19.70
2017-09-13T15:55:01.873Z,19.90
2017-09-13T15:57:28.294Z,19.90
2017-09-13T15:59:54.869Z,19.90
2017-09-13T16:02:22.055Z,19.70
2017-09-13T16:04:49.241Z,19.60
2017-09-13T16:07:15.662Z,19.60
2017-09-13T16:09:42.084Z,19.50
2017-09-13T16:12:08.518Z,19.60
2017-09-13T16:14:35.401Z,19.50
2017-09-13T16:17:02.618Z,19.50
2017-09-13T16:19:29.111Z,19.40
2017-09-13T16:21:56.271Z,19.40
2017-09-13T16:24:22.865Z,19.40
2017-09-13T16:26:49.281Z,19.30
2017-09-13T16:29:15.702Z,19.20
2017-09-13T16:31:42.198Z,19.20
2017-09-13T16:34:09.384Z,19.10
2017-09-13T16:36:35.895Z,19.20
2017-09-13T16:39:02.403Z,19.20
2017-09-13T16:41:28.877Z,19.30
2017-09-13T16:43:55.390Z,19.30
2017-09-13T16:46:21.821Z,19.30
2017-09-13T16:48:48.380Z,19.20
2017-09-13T16:51:14.902Z,19.20
2017-09-13T16:53:42.083Z,19.10
2017-09-13T16:56:08.590Z,19.10
2017-09-13T16:58:35.062Z,19.00
2017-09-13T17:01:01.797Z,19.00
2017-09-13T17:03:28.265Z,18.90
2017-09-13T17:05:54.775Z,18.90
2017-09-13T17:08:21.396Z,18.90
2017-09-13T17:10:47.859Z,18.80
2017-09-13T17:13:14.440Z,18.90
2017-09-13T17:15:40.902Z,18.90
2017-09-13T17:18:07.540Z,18.90
2017-09-13T17:20:34.144Z,19.00
2017-09-13T17:23:01.720Z,19.00
2017-09-13T17:25:28.242Z,19.00
2017-09-13T17:27:55.477Z,19.00
2017-09-13T17:30:22.738Z,19.10
2017-09-13T17:32:49.923Z,19.00
2017-09-13T17:35:16.837Z,19.00
2017-09-13T17:37:44.257Z,19.10
2017-09-13T17:40:10.736Z,19.10
2017-09-13T17:42:37.996Z,19.10
2017-09-13T17:45:04.483Z,19.10
2017-09-13T17:47:31.364Z,19.10
2017-09-13T17:49:57.843Z,19.10
2017-09-13T17:52:24.462Z,19.00
2017-09-13T17:54:50.973Z,19.00
2017-09-13T17:57:18.234Z,18.90
2017-09-13T17:59:44.906Z,19.00
2017-09-13T18:02:11.578Z,19.10
2017-09-13T18:04:38.204Z,19.00
2017-09-13T18:07:05.488Z,19.00
2017-09-13T18:09:33.489Z,18.90
2017-09-13T18:12:00.136Z,18.80
2017-09-13T18:14:26.671Z,18.90
2017-09-13T18:16:53.165Z,18.90
2017-09-13T18:19:19.639Z,18.70
2017-09-13T18:21:46.189Z,18.70
2017-09-13T18:24:12.800Z,18.60
2017-09-13T18:26:41.317Z,18.70
2017-09-13T18:29:09.431Z,18.80
2017-09-13T18:31:36.645Z,18.90
2017-09-13T18:34:03.149Z,18.90
2017-09-13T18:36:29.610Z,19.00
2017-09-13T18:38:56.549Z,19.00
2017-09-13T18:41:23.075Z,19.00
2017-09-13T18:43:49.855Z,18.90
2017-09-13T18:46:16.751Z,18.80
2017-09-13T18:48:44.479Z,18.60
2017-09-13T18:51:11.816Z,18.40
2017-09-13T18:53:39.024Z,18.30
2017-09-13T18:56:05.971Z,18.30
2017-09-13T18:58:34.003Z,18.10
2017-09-13T19:01:01.195Z,18.10
2017-09-13T19:03:27.703Z,18.10
2017-09-13T19:05:54.170Z,18.20
2017-09-13T19:08:21.460Z,18.20
2017-09-13T19:10:47.953Z,18.20
2017-09-13T19:13:15.579Z,18.20
2017-09-13T19:15:42.065Z,18.20
2017-09-13T19:18:08.544Z,18.20
2017-09-13T19:20:35.920Z,18.20
2017-09-13T19:23:02.363Z,18.20
2017-09-13T19:25:29.842Z,18.20
2017-09-13T19:27:56.266Z,18.20
2017-09-13T19:30:22.712Z,18.10
2017-09-13T19:32:49.149Z,18.10
2017-09-13T19:35:15.575Z,18.10
2017-09-13T19:37:42.002Z,18.10
2017-09-13T19:40:08.611Z,18.10
2017-09-13T19:42:35.033Z,18.10
2017-09-13T19:45:02.372Z,18.00
2017-09-13T19:47:29.582Z,18.20
2017-09-13T19:49:56.063Z,18.20
2017-09-13T19:52:22.491Z,18.20
2017-09-13T19:54:48.911Z,18.20
2017-09-13T19:57:15.407Z,18.20
2017-09-13T19:59:41.922Z,18.10
2017-09-13T20:02:08.424Z,18.10
2017-09-13T20:04:36.364Z,18.10
2017-09-13T20:07:02.832Z,18.20
2017-09-13T20:09:29.293Z,18.20
2017-09-13T20:11:55.787Z,18.20
2017-09-13T20:14:22.972Z,18.30
2017-09-13T20:16:50.138Z,18.30
2017-09-13T20:19:16.635Z,18.30
2017-09-13T20:21:43.875Z,18.40
2017-09-13T20:24:10.291Z,18.40
2017-09-13T20:26:36.975Z,18.50
2017-09-13T20:29:04.132Z,18.70
2017-09-13T20:31:30.554Z,18.70
2017-09-13T20:33:57.714Z,19.00
2017-09-13T20:36:24.870Z,19.10
2017-09-13T20:38:51.279Z,19.10
2017-09-13T20:41:17.683Z,19.30
2017-09-13T20:43:44.102Z,19.50
2017-09-13T20:46:10.503Z,19.60
2017-09-13T20:48:36.915Z,19.60
2017-09-13T20:51:04.082Z,19.90
2017-09-13T20:53:30.599Z,19.90
2017-09-13T20:55:57.808Z,19.90
2017-09-13T20:58:24.246Z,19.90
2017-09-13T21:00:50.671Z,20.10
2017-09-13T21:03:17.096Z,20.10
2017-09-13T21:05:43.523Z,20.20
2017-09-13T21:08:09.967Z,20.10
2017-09-13T21:10:36.614Z,20.20
2017-09-13T21:13:03.071Z,20.20
2017-09-13T21:15:29.582Z,20.20
2017-09-13T21:17:56.008Z,20.20
2017-09-13T21:20:22.438Z,20.20
2017-09-13T21:22:48.838Z,20.20
2017-09-13T21:25:15.246Z,20.20
2017-09-13T21:27:41.664Z,20.30
2017-09-13T21:30:08.112Z,20.10
2017-09-13T21:32:34.518Z,20.00
2017-09-13T21:35:00.958Z,20.00
2017-09-13T21:37:27.525Z,20.00
2017-09-13T21:39:53.984Z,20.10
2017-09-13T21:42:20.412Z,20.10
2017-09-13T21:44:46.832Z,20.10
2017-09-13T21:47:13.998Z,20.10
2017-09-13T21:49:40.555Z,20.10
2017-09-13T21:52:06.988Z,20.20
2017-09-13T21:54:33.411Z,20.00
2017-09-13T21:56:59.840Z,20.00
2017-09-13T21:59:26.265Z,20.10
2017-09-13T22:01:52.748Z,20.00
2017-09-13T22:04:19.178Z,20.00
2017-09-13T22:06:45.658Z,20.20
2017-09-13T22:09:12.067Z,20.20
2017-09-13T22:11:39.241Z,20.20
2017-09-13T22:14:06.393Z,20.10
2017-09-13T22:16:32.811Z,20.10
2017-09-13T22:18:59.982Z,19.90
2017-09-13T22:21:26.410Z,19.90
2017-09-13T22:23:52.814Z,19.80
2017-09-13T22:26:19.230Z,19.80
2017-09-13T22:28:45.870Z,19.70
2017-09-13T22:31:13.092Z,19.70
2017-09-13T22:33:39.656Z,19.70
2017-09-13T22:36:06.106Z,19.80
2017-09-13T22:38:32.515Z,19.90
2017-09-13T22:40:58.939Z,19.90
2017-09-13T22:43:25.372Z,20.00
2017-09-13T22:45:51.805Z,20.00
2017-09-13T22:48:18.268Z,20.00
2017-09-13T22:50:46.168Z,20.10
2017-09-13T22:53:12.583Z,20.10
2017-09-13T22:55:39.744Z,20.30
2017-09-13T22:58:06.948Z,20.50
2017-09-13T23:00:33.442Z,20.40
2017-09-13T23:02:59.882Z,20.50
2017-09-13T23:05:26.328Z,20.50
2017-09-13T23:07:52.768Z,20.60
2017-09-13T23:10:19.313Z,20.50
2017-09-13T23:12:45.742Z,20.50
2017-09-13T23:15:12.154Z,20.40
2017-09-13T23:17:38.557Z,20.40
2017-09-13T23:20:05.717Z,20.40
2017-09-13T23:22:32.985Z,20.50
2017-09-13T23:24:59.400Z,20.50
2017-09-13T23:27:26.555Z,20.90
2017-09-13T23:29:52.984Z,20.80
2017-09-13T23:32:20.156Z,20.90
2017-09-13T23:34:46.600Z,20.90
2017-09-13T23:37:13.044Z,20.90
2017-09-13T23:39:39.484Z,21.00
2017-09-13T23:42:05.902Z,21.00
2017-09-13T23:44:32.464Z,20.90
2017-09-13T23:46:58.945Z,21.00
2017-09-13T23:49:25.378Z,21.00
2017-09-13T23:51:51.772Z,21.00
2017-09-13T23:54:18.187Z,21.00
2017-09-13T23:56:44.612Z,21.00
2017-09-13T23:59:11.037Z,20.90
